sensor_id;sensor_type;location;lat;lon;timestamp;P1;durP1;ratioP1;P2;durP2;ratioP2
4821;SDS011;2425;47.794;13.068;2024-03-02T08:29:07;1.60;;;1.60;;
4821;SDS011;2425;47.794;13.068;2024-03-02T08:31:34;1.63;;;1.63;;
4821;SDS011;2425;47.794;13.068;2024-03-02T08:34:01;2.20;;;2.10;;
4821;SDS011;2425;47.794;13.068;2024-03-02T08:36:27;2.43;;;2.33;;
4821;SDS011;2425;47.794;13.068;2024-03-02T08:38:54;2.83;;;2.63;;
4821;SDS011;2425;47.794;13.068;2024-03-02T08:41:21;7.30;;;3.13;;
4821;SDS011;2425;47.794;13.068;2024-03-02T08:43:48;2.90;;;2.70;;
4821;SDS011;2425;47.794;13.068;2024-03-02T08:46:16;2.40;;;2.30;;
4821;SDS011;2425;47.794;13.068;2024-03-02T08:48:43;3.93;;;2.50;;
4821;SDS011;2425;47.794;13.068;2024-03-02T08:51:10;2.90;;;2.60;;
4821;SDS011;2425;47.794;13.068;2024-03-02T08:53:36;2.50;;;2.40;;
4821;SDS011;2425;47.794;13.068;2024-03-02T08:56:04;2.50;;;2.40;;
4821;SDS011;2425;47.794;13.068;2024-03-02T08:58:31;2.10;;;2.10;;
4821;SDS011;2425;47.794;13.068;2024-03-02T09:00:58;1.73;;;1.73;;
4821;SDS011;2425;47.794;13.068;2024-03-02T09:03:26;2.60;;;2.50;;
4821;SDS011;2425;47.794;13.068;2024-03-02T09:05:53;2.20;;;2.10;;
4821;SDS011;2425;47.794;13.068;2024-03-02T09:08:20;2.33;;;2.00;;
4821;SDS011;2425;47.794;13.068;2024-03-02T09:10:46;2.03;;;2.03;;
4821;SDS011;2425;47.794;13.068;2024-03-02T09:13:13;2.07;;;1.97;;
4821;SDS011;2425;47.794;13.068;2024-03-02T09:15:40;1.97;;;1.90;;
4821;SDS011;2425;47.794;13.068;2024-03-02T09:18:07;2.00;;;1.90;;
4821;SDS011;2425;47.794;13.068;2024-03-02T09:20:35;1.93;;;1.93;;
4821;SDS011;2425;47.794;13.068;2024-03-02T09:23:02;2.10;;;1.90;;
4821;SDS011;2425;47.794;13.068;2024-03-02T09:25:29;2.30;;;1.80;;
4821;SDS011;2425;47.794;13.068;2024-03-02T09:27:55;2.70;;;1.67;;
4821;SDS011;2425;47.794;13.068;2024-03-02T09:30:22;2.20;;;2.00;;
4821;SDS011;2425;47.794;13.068;2024-03-02T09:32:49;2.13;;;2.03;;
4821;SDS011;2425;47.794;13.068;2024-03-02T09:35:16;1.77;;;1.77;;
4821;SDS011;2425;47.794;13.068;2024-03-02T09:37:44;2.00;;;1.90;;
4821;SDS011;2425;47.794;13.068;2024-03-02T09:40:11;1.90;;;1.80;;
4821;SDS011;2425;47.794;13.068;2024-03-02T09:42:39;2.07;;;1.87;;
4821;SDS011;2425;47.794;13.068;2024-03-02T09:45:07;1.80;;;1.70;;
4821;SDS011;2425;47.794;13.068;2024-03-02T09:47:35;2.27;;;2.07;;
4821;SDS011;2425;47.794;13.068;2024-03-02T09:50:02;2.00;;;1.90;;
4821;SDS011;2425;47.794;13.068;2024-03-02T09:52:29;1.43;;;1.43;;
4821;SDS011;2425;47.794;13.068;2024-03-02T09:54:58;1.63;;;1.63;;
4821;SDS011;2425;47.794;13.068;2024-03-02T09:57:25;1.80;;;1.80;;
4821;SDS011;2425;47.794;13.068;2024-03-02T09:59:52;1.60;;;1.60;;
4821;SDS011;2425;47.794;13.068;2024-03-02T10:02:18;1.80;;;1.80;;
4821;SDS011;2425;47.794;13.068;2024-03-02T10:04:45;1.90;;;1.80;;
4821;SDS011;2425;47.794;13.068;2024-03-02T10:07:12;1.50;;;1.40;;
4821;SDS011;2425;47.794;13.068;2024-03-02T10:09:40;1.80;;;1.80;;
4821;SDS011;2425;47.794;13.068;2024-03-02T10:12:09;1.63;;;1.63;;
4821;SDS011;2425;47.794;13.068;2024-03-02T10:14:37;2.23;;;2.03;;
4821;SDS011;2425;47.794;13.068;2024-03-02T10:17:05;1.70;;;1.60;;
4821;SDS011;2425;47.794;13.068;2024-03-02T10:19:34;2.50;;;1.60;;
4821;SDS011;2425;47.794;13.068;2024-03-02T10:22:02;1.73;;;1.73;;
4821;SDS011;2425;47.794;13.068;2024-03-02T10:24:35;1.47;;;1.47;;
4821;SDS011;2425;47.794;13.068;2024-03-02T10:27:07;1.70;;;1.60;;
4821;SDS011;2425;47.794;13.068;2024-03-02T10:29:38;9.03;;;1.47;;
4821;SDS011;2425;47.794;13.068;2024-03-02T10:32:06;1.47;;;1.37;;
4821;SDS011;2425;47.794;13.068;2024-03-02T10:34:36;1.93;;;1.83;;
4821;SDS011;2425;47.794;13.068;2024-03-02T10:37:03;1.63;;;1.53;;
4821;SDS011;2425;47.794;13.068;2024-03-02T10:39:30;1.87;;;1.80;;
4821;SDS011;2425;47.794;13.068;2024-03-02T10:41:57;1.57;;;1.57;;
4821;SDS011;2425;47.794;13.068;2024-03-02T10:44:26;4.57;;;1.97;;
4821;SDS011;2425;47.794;13.068;2024-03-02T10:46:53;1.60;;;1.50;;
4821;SDS011;2425;47.794;13.068;2024-03-02T10:49:20;1.47;;;1.47;;
4821;SDS011;2425;47.794;13.068;2024-03-02T10:51:48;1.63;;;1.63;;
4821;SDS011;2425;47.794;13.068;2024-03-02T10:54:14;2.07;;;1.87;;
4821;SDS011;2425;47.794;13.068;2024-03-02T10:56:44;1.50;;;1.50;;
4821;SDS011;2425;47.794;13.068;2024-03-02T10:59:14;1.60;;;1.60;;
4821;SDS011;2425;47.794;13.068;2024-03-02T11:01:45;1.93;;;1.53;;
4821;SDS011;2425;47.794;13.068;2024-03-02T11:04:15;1.63;;;1.53;;
4821;SDS011;2425;47.794;13.068;2024-03-02T11:06:43;1.60;;;1.60;;
